createdAt,value
2022-11-14T00:00:22.560Z,99643.00
2022-11-14T00:02:49.541Z,99667.00
2022-11-14T00:05:16.592Z,99658.00
2022-11-14T00:07:49.474Z,99667.00
2022-11-14T00:10:16.663Z,99668.00
2022-11-14T00:12:50.538Z,99666.00
2022-11-14T00:15:17.694Z,99644.00
2022-11-14T00:17:51.544Z,99642.00
2022-11-14T00:20:18.449Z,99661.00
2022-11-14T00:22:51.485Z,99657.00
2022-11-14T00:25:18.433Z,99659.00
2022-11-14T00:27:51.529Z,99667.00
2022-11-14T00:30:18.552Z,99661.00
2022-11-14T00:32:51.520Z,99656.00
2022-11-14T00:35:18.386Z,99652.00
2022-11-14T00:37:51.545Z,99663.00
2022-11-14T00:40:18.568Z,99674.00
2022-11-14T00:42:51.517Z,99664.00
2022-11-14T00:45:18.432Z,99648.00
2022-11-14T00:47:45.327Z,99663.00
2022-11-14T00:50:18.590Z,99660.00
2022-11-14T00:52:45.467Z,99655.00
2022-11-14T00:55:18.536Z,99647.00
2022-11-14T00:57:45.494Z,99641.00
2022-11-14T01:00:13.812Z,99648.00
2022-11-14T01:02:47.528Z,99640.00
2022-11-14T01:05:14.467Z,99645.00
2022-11-14T01:07:47.572Z,99628.00
2022-11-14T01:10:14.491Z,99644.00
2022-11-14T01:12:47.527Z,99640.00
2022-11-14T01:15:14.409Z,99642.00
2022-11-14T01:17:47.552Z,99641.00
2022-11-14T01:20:15.772Z,99645.00
2022-11-14T01:22:49.551Z,99656.00
2022-11-14T01:25:18.113Z,99644.00
2022-11-14T01:27:45.042Z,99633.00
2022-11-14T01:30:19.562Z,99651.00
2022-11-14T01:32:46.592Z,99637.00
2022-11-14T01:35:19.565Z,99638.00
2022-11-14T01:37:46.470Z,99644.00
2022-11-14T01:40:19.569Z,99647.00
2022-11-14T01:43:11.377Z,99643.00
2022-11-14T01:46:12.567Z,99638.00
2022-11-14T01:49:10.128Z,99631.00
2022-11-14T01:51:49.579Z,99619.00
2022-11-14T01:54:29.708Z,99620.00
2022-11-14T01:57:05.582Z,99619.00
2022-11-14T01:59:48.780Z,99624.00
2022-11-14T02:02:27.577Z,99624.00
2022-11-14T02:05:00.680Z,99626.00
2022-11-14T02:07:35.599Z,99614.00
2022-11-14T02:10:09.952Z,99610.00
2022-11-14T02:12:43.628Z,99616.00
2022-11-14T02:15:10.710Z,99617.00
2022-11-14T02:17:44.571Z,99620.00
2022-11-14T02:20:11.921Z,99614.00
2022-11-14T02:22:46.567Z,99600.00
2022-11-14T02:25:14.658Z,99597.00
2022-11-14T02:27:47.554Z,99590.00
2022-11-14T02:30:19.089Z,99597.00
2022-11-14T02:33:11.686Z,99586.00
2022-11-14T02:35:38.872Z,99595.00
2022-11-14T02:38:12.587Z,99591.00
2022-11-14T02:40:39.474Z,99606.00
2022-11-14T02:43:12.612Z,99615.00
2022-11-14T02:45:39.638Z,99598.00
2022-11-14T02:48:12.683Z,99597.00
2022-11-14T02:50:39.942Z,99597.00
2022-11-14T02:53:13.619Z,99590.00
2022-11-14T02:55:40.715Z,99602.00
2022-11-14T02:58:14.652Z,99570.00
2022-11-14T03:01:05.781Z,99587.00
2022-11-14T03:03:34.595Z,99573.00
2022-11-14T03:06:08.565Z,99591.00
2022-11-14T03:08:35.459Z,99598.00
2022-11-14T03:11:13.587Z,99602.00
2022-11-14T03:13:40.443Z,99608.00
2022-11-14T03:16:15.608Z,99592.00
2022-11-14T03:18:42.565Z,99598.00
2022-11-14T03:21:18.646Z,99602.00
2022-11-14T03:23:45.724Z,99594.00
2022-11-14T03:26:13.713Z,99585.00
2022-11-14T03:28:47.710Z,99580.00
2022-11-14T03:31:14.774Z,99581.00
2022-11-14T03:33:54.674Z,99603.00
2022-11-14T03:36:21.601Z,99582.00
2022-11-14T03:38:54.612Z,99603.00
2022-11-14T03:41:21.516Z,99597.00
2022-11-14T03:43:54.613Z,99588.00
2022-11-14T03:46:21.530Z,99603.00
2022-11-14T03:48:54.607Z,99596.00
2022-11-14T03:51:27.615Z,99612.00
2022-11-14T03:53:54.462Z,99606.00
2022-11-14T03:56:27.622Z,99598.00
2022-11-14T03:58:54.453Z,99607.00
2022-11-14T04:01:27.712Z,99614.00
2022-11-14T04:03:54.805Z,99608.00
2022-11-14T04:06:28.645Z,99607.00
2022-11-14T04:08:55.569Z,99611.00
2022-11-14T04:11:29.645Z,99603.00
2022-11-14T04:13:56.534Z,99584.00
2022-11-14T04:16:29.653Z,99603.00
2022-11-14T04:18:56.510Z,99587.00
2022-11-14T04:21:29.675Z,99592.00
2022-11-14T04:23:56.524Z,99618.00
2022-11-14T04:26:23.372Z,99623.00
2022-11-14T04:28:56.635Z,99614.00
2022-11-14T04:31:23.502Z,99622.00
2022-11-14T04:33:56.648Z,99622.00
2022-11-14T04:36:23.496Z,99617.00
2022-11-14T04:38:56.653Z,99616.00
2022-11-14T04:41:23.534Z,99613.00
2022-11-14T04:43:56.644Z,99624.00
2022-11-14T04:46:23.568Z,99618.00
2022-11-14T04:48:50.405Z,99612.00
2022-11-14T04:51:23.654Z,99611.00
2022-11-14T04:53:50.572Z,99610.00
2022-11-14T04:56:23.651Z,99616.00
2022-11-14T04:58:50.475Z,99608.00
2022-11-14T05:01:23.785Z,99616.00
2022-11-14T05:03:50.740Z,99611.00
2022-11-14T05:06:17.572Z,99607.00
2022-11-14T05:08:51.675Z,99616.00
2022-11-14T05:11:29.146Z,99609.00
2022-11-14T05:14:02.692Z,99616.00
2022-11-14T05:16:29.530Z,99611.00
2022-11-14T05:19:02.674Z,99626.00
2022-11-14T05:21:29.549Z,99614.00
2022-11-14T05:24:02.710Z,99621.00
2022-11-14T05:26:29.572Z,99617.00
2022-11-14T05:29:02.685Z,99626.00
2022-11-14T05:31:29.529Z,99624.00
2022-11-14T05:34:02.674Z,99620.00
2022-11-14T05:36:29.506Z,99628.00
2022-11-14T05:39:02.698Z,99638.00
2022-11-14T05:41:29.538Z,99630.00
2022-11-14T05:44:02.704Z,99622.00
2022-11-14T05:46:29.603Z,99627.00
2022-11-14T05:49:02.687Z,99642.00
2022-11-14T05:51:29.530Z,99630.00
2022-11-14T05:54:02.678Z,99646.00
2022-11-14T05:56:35.729Z,99642.00
2022-11-14T05:59:02.675Z,99648.00
2022-11-14T06:01:35.828Z,99633.00
2022-11-14T06:04:05.251Z,99632.00
2022-11-14T06:06:32.110Z,99649.00
2022-11-14T06:09:05.684Z,99647.00
2022-11-14T06:11:38.680Z,99653.00
2022-11-14T06:14:10.447Z,99646.00
2022-11-14T06:16:44.689Z,99654.00
2022-11-14T06:19:11.521Z,99654.00
2022-11-14T06:21:44.713Z,99645.00
2022-11-14T06:24:11.571Z,99659.00
2022-11-14T06:26:44.737Z,99649.00
2022-11-14T06:29:11.641Z,99662.00
2022-11-14T06:31:44.713Z,99667.00
2022-11-14T06:34:11.980Z,99667.00
2022-11-14T06:36:38.966Z,99667.00
2022-11-14T06:39:12.717Z,99664.00
2022-11-14T06:41:39.561Z,99676.00
2022-11-14T06:44:14.770Z,99671.00
2022-11-14T06:46:41.702Z,99668.00
2022-11-14T06:49:14.726Z,99679.00
2022-11-14T06:51:41.588Z,99681.00
2022-11-14T06:54:18.730Z,99693.00
2022-11-14T06:56:45.691Z,99687.00
2022-11-14T06:59:18.723Z,99686.00
2022-11-14T07:01:51.727Z,99676.00
2022-11-14T07:04:18.565Z,99692.00
2022-11-14T07:06:51.833Z,99689.00
2022-11-14T07:09:18.771Z,99689.00
2022-11-14T07:11:45.605Z,99695.00
2022-11-14T07:14:18.706Z,99715.00
2022-11-14T07:16:45.661Z,99702.00
2022-11-14T07:19:18.722Z,99694.00
2022-11-14T07:21:45.611Z,99716.00
2022-11-14T07:24:18.738Z,99703.00
2022-11-14T07:26:52.736Z,99714.00
2022-11-14T07:29:19.598Z,99710.00
2022-11-14T07:31:46.443Z,99711.00
2022-11-14T07:34:19.766Z,99711.00
2022-11-14T07:36:46.631Z,99716.00
2022-11-14T07:39:19.731Z,99706.00
2022-11-14T07:41:46.648Z,99728.00
2022-11-14T07:44:19.756Z,99716.00
2022-11-14T07:46:46.663Z,99726.00
2022-11-14T07:49:13.499Z,99722.00
2022-11-14T07:51:46.760Z,99734.00
2022-11-14T07:54:13.715Z,99721.00
2022-11-14T07:56:46.803Z,99730.00
2022-11-14T07:59:13.824Z,99727.00
2022-11-14T08:01:46.848Z,99726.00
2022-11-14T08:04:13.878Z,99727.00
2022-11-14T08:06:48.077Z,99734.00
2022-11-14T08:09:21.951Z,99730.00
2022-11-14T08:11:49.015Z,99728.00
2022-11-14T08:14:22.794Z,99743.00
2022-11-14T08:16:50.649Z,99743.00
2022-11-14T08:19:23.947Z,99749.00
2022-11-14T08:21:50.818Z,99747.00
2022-11-14T08:24:24.793Z,99752.00
2022-11-14T08:26:51.650Z,99755.00
2022-11-14T08:29:18.545Z,99751.00
2022-11-14T08:31:58.516Z,99747.00
2022-11-14T08:34:26.791Z,99744.00
2022-11-14T08:36:59.874Z,99756.00
2022-11-14T08:39:26.783Z,99757.00
2022-11-14T08:41:59.800Z,99756.00
2022-11-14T08:44:51.809Z,99757.00
2022-11-14T08:47:25.815Z,99767.00
2022-11-14T08:49:52.653Z,99763.00
2022-11-14T08:52:25.825Z,99765.00
2022-11-14T08:54:52.742Z,99758.00
2022-11-14T08:57:25.797Z,99773.00
2022-11-14T08:59:52.711Z,99758.00
2022-11-14T09:02:19.608Z,99743.00
2022-11-14T09:04:52.906Z,99757.00
2022-11-14T09:07:19.943Z,99757.00
2022-11-14T09:09:53.909Z,99762.00
2022-11-14T09:12:20.813Z,99766.00
2022-11-14T09:14:54.907Z,99756.00
2022-11-14T09:17:22.011Z,99761.00
2022-11-14T09:19:55.903Z,99759.00
2022-11-14T09:22:23.000Z,99771.00
2022-11-14T09:24:57.009Z,99774.00
2022-11-14T09:27:26.199Z,99772.00
2022-11-14T09:29:59.820Z,99777.00
2022-11-14T09:32:32.890Z,99763.00
2022-11-14T09:34:59.808Z,99764.00
2022-11-14T09:37:33.848Z,99771.00
2022-11-14T09:40:06.841Z,99770.00
2022-11-14T09:43:10.080Z,99774.00
2022-11-14T09:45:43.853Z,99773.00
2022-11-14T09:48:14.398Z,99778.00
2022-11-14T09:50:52.821Z,99787.00
2022-11-14T09:53:33.978Z,99797.00
2022-11-14T09:56:07.821Z,99804.00
2022-11-14T09:58:34.710Z,99784.00
2022-11-14T10:01:34.970Z,99805.00
2022-11-14T10:04:51.880Z,99801.00
2022-11-14T10:07:34.973Z,99803.00
2022-11-14T10:11:08.886Z,99791.00
2022-11-14T10:13:56.918Z,99801.00
2022-11-14T10:17:00.888Z,99787.00
2022-11-14T10:19:53.510Z,99785.00
2022-11-14T10:23:01.503Z,99784.00
2022-11-14T10:25:59.398Z,99782.00
2022-11-14T10:28:40.955Z,99782.00
2022-11-14T10:31:35.415Z,99765.00
2022-11-14T10:34:12.841Z,99779.00
2022-11-14T10:37:26.863Z,99780.00
2022-11-14T10:39:56.031Z,99772.00
2022-11-14T10:42:44.848Z,99780.00
2022-11-14T10:45:36.095Z,99777.00
2022-11-14T10:48:27.012Z,99762.00
2022-11-14T10:51:05.698Z,99760.00
2022-11-14T10:54:13.843Z,99775.00
2022-11-14T10:56:51.564Z,99761.00
2022-11-14T10:59:25.889Z,99768.00
2022-11-14T11:01:53.252Z,99764.00
2022-11-14T11:04:37.848Z,99769.00
2022-11-14T11:07:07.892Z,99761.00
2022-11-14T11:09:42.196Z,99767.00
2022-11-14T11:12:28.128Z,99747.00
2022-11-14T11:15:14.928Z,99753.00
2022-11-14T11:18:08.862Z,99748.00
2022-11-14T11:20:37.431Z,99758.00
2022-11-14T11:23:16.864Z,99756.00
2022-11-14T11:25:43.715Z,99748.00
2022-11-14T11:28:29.204Z,99740.00
2022-11-14T11:31:05.224Z,99749.00
2022-11-14T11:33:39.934Z,99746.00
2022-11-14T11:36:13.959Z,99745.00
2022-11-14T11:38:47.086Z,99744.00
2022-11-14T11:44:22.885Z,99745.00
2022-11-14T11:46:58.588Z,99752.00
2022-11-14T11:49:47.425Z,99740.00
2022-11-14T11:52:38.590Z,99742.00
2022-11-14T11:55:33.910Z,99731.00
2022-11-14T11:58:17.168Z,99732.00
2022-11-14T12:00:50.921Z,99724.00
2022-11-14T12:03:20.965Z,99726.00
2022-11-14T12:05:59.913Z,99723.00
2022-11-14T12:08:34.305Z,99722.00
2022-11-14T12:11:08.911Z,99706.00
2022-11-14T12:14:14.798Z,99711.00
2022-11-14T12:17:30.898Z,99722.00
2022-11-14T12:20:41.515Z,99714.00
2022-11-14T12:23:38.038Z,99718.00
2022-11-14T12:26:42.243Z,99712.00
2022-11-14T12:29:44.918Z,99707.00
2022-11-14T12:32:15.561Z,99691.00
2022-11-14T12:34:51.949Z,99694.00
2022-11-14T12:37:41.923Z,99708.00
2022-11-14T12:40:27.908Z,99687.00
2022-11-14T12:43:01.912Z,99691.00
2022-11-14T12:45:40.759Z,99702.00
2022-11-14T12:48:31.919Z,99702.00
2022-11-14T12:50:59.450Z,99690.00
2022-11-14T12:53:38.944Z,99698.00
2022-11-14T12:56:41.938Z,99693.00
2022-11-14T12:59:54.939Z,99675.00
2022-11-14T13:02:51.088Z,99671.00
2022-11-14T13:05:51.923Z,99679.00
2022-11-14T13:08:58.915Z,99676.00
2022-11-14T13:11:31.938Z,99670.00
2022-11-14T13:14:07.997Z,99662.00
2022-11-14T13:16:34.906Z,99659.00
2022-11-14T13:19:16.955Z,99664.00
2022-11-14T13:22:17.946Z,99664.00
2022-11-14T13:25:05.913Z,99653.00
2022-11-14T13:28:05.352Z,99650.00
2022-11-14T13:31:22.936Z,99652.00
2022-11-14T13:33:58.970Z,99648.00
2022-11-14T13:36:53.923Z,99652.00
2022-11-14T13:39:41.977Z,99647.00
2022-11-14T13:43:01.948Z,99653.00
2022-11-14T13:46:02.183Z,99639.00
2022-11-14T13:48:54.953Z,99651.00
2022-11-14T13:51:42.308Z,99642.00
2022-11-14T13:54:21.984Z,99626.00
2022-11-14T13:57:42.869Z,99642.00
2022-11-14T14:00:21.425Z,99639.00
2022-11-14T14:02:57.993Z,99622.00
2022-11-14T14:06:10.254Z,99615.00
2022-11-14T14:09:30.025Z,99622.00
2022-11-14T14:12:09.615Z,99618.00
2022-11-14T14:14:51.997Z,99622.00
2022-11-14T14:17:53.132Z,99622.00
2022-11-14T14:20:47.777Z,99611.00
2022-11-14T14:23:52.456Z,99617.00
2022-11-14T14:26:42.535Z,99618.00
2022-11-14T14:29:41.456Z,99607.00
2022-11-14T14:32:20.185Z,99617.00
2022-11-14T14:34:56.376Z,99615.00
2022-11-14T14:37:31.594Z,99609.00
2022-11-14T14:40:16.484Z,99616.00
2022-11-14T14:42:49.203Z,99605.00
2022-11-14T14:45:31.813Z,99614.00
2022-11-14T14:48:08.523Z,99598.00
2022-11-14T14:51:10.810Z,99607.00
2022-11-14T14:53:46.669Z,99618.00
2022-11-14T14:56:31.911Z,99619.00
2022-11-14T14:59:00.337Z,99617.00
2022-11-14T15:01:42.822Z,99620.00
2022-11-14T15:04:20.087Z,99624.00
2022-11-14T15:06:47.450Z,99618.00
2022-11-14T15:09:34.352Z,99623.00
2022-11-14T15:12:01.404Z,99628.00
2022-11-14T15:14:40.237Z,99619.00
2022-11-14T15:17:07.217Z,99617.00
2022-11-14T15:19:52.206Z,99618.00
2022-11-14T15:22:19.126Z,99620.00
2022-11-14T15:25:20.799Z,99618.00
2022-11-14T15:27:52.301Z,99614.00
2022-11-14T15:30:38.570Z,99620.00
2022-11-14T15:33:24.229Z,99612.00
2022-11-14T15:36:11.052Z,99619.00
2022-11-14T15:38:44.042Z,99605.00
2022-11-14T15:41:29.072Z,99620.00
2022-11-14T15:43:58.176Z,99613.00
2022-11-14T15:46:41.766Z,99621.00
2022-11-14T15:49:25.019Z,99625.00
2022-11-14T15:52:07.684Z,99624.00
2022-11-14T15:54:35.924Z,99614.00
2022-11-14T15:57:21.212Z,99616.00
2022-11-14T15:59:48.761Z,99614.00
2022-11-14T16:02:35.077Z,99614.00
2022-11-14T16:05:10.075Z,99617.00
2022-11-14T16:07:37.049Z,99615.00
2022-11-14T16:10:11.070Z,99598.00
2022-11-14T16:12:38.046Z,99612.00
2022-11-14T16:15:12.167Z,99610.00
2022-11-14T16:17:41.734Z,99606.00
2022-11-14T16:20:36.061Z,99596.00
2022-11-14T16:23:03.257Z,99595.00
2022-11-14T16:25:38.094Z,99596.00
2022-11-14T16:28:05.153Z,99595.00
2022-11-14T16:30:39.154Z,99593.00
2022-11-14T16:33:06.081Z,99597.00
2022-11-14T16:35:33.115Z,99599.00
2022-11-14T16:38:06.101Z,99595.00
2022-11-14T16:40:39.139Z,99591.00
2022-11-14T16:43:06.045Z,99590.00
2022-11-14T16:45:32.959Z,99587.00
2022-11-14T16:48:06.104Z,99589.00
2022-11-14T16:50:32.994Z,99593.00
2022-11-14T16:53:06.053Z,99595.00
2022-11-14T16:55:32.980Z,99587.00
2022-11-14T16:58:06.063Z,99580.00
2022-11-14T17:00:33.017Z,99591.00
2022-11-14T17:03:06.115Z,99581.00
2022-11-14T17:05:33.023Z,99587.00
2022-11-14T17:08:06.123Z,99588.00
2022-11-14T17:10:33.040Z,99582.00
2022-11-14T17:12:59.989Z,99573.00
2022-11-14T17:15:33.222Z,99586.00
2022-11-14T17:18:00.177Z,99578.00
2022-11-14T17:20:33.101Z,99577.00
2022-11-14T17:23:00.000Z,99593.00
2022-11-14T17:25:33.134Z,99572.00
2022-11-14T17:28:00.037Z,99592.00
2022-11-14T17:30:33.112Z,99580.00
2022-11-14T17:33:06.123Z,99587.00
2022-11-14T17:35:35.978Z,99591.00
2022-11-14T17:38:02.900Z,99584.00
2022-11-14T17:40:36.161Z,99586.00
2022-11-14T17:43:09.119Z,99576.00
2022-11-14T17:45:40.968Z,99582.00
2022-11-14T17:48:15.119Z,99595.00
2022-11-14T17:50:42.077Z,99582.00
2022-11-14T17:53:15.142Z,99584.00
2022-11-14T17:55:42.180Z,99587.00
2022-11-14T17:58:15.136Z,99588.00
2022-11-14T18:00:42.034Z,99576.00
2022-11-14T18:03:08.972Z,99598.00
2022-11-14T18:05:42.175Z,99586.00
2022-11-14T18:08:09.146Z,99598.00
2022-11-14T18:10:43.155Z,99590.00
2022-11-14T18:13:17.144Z,99588.00
2022-11-14T18:15:44.083Z,99575.00
2022-11-14T18:18:17.149Z,99582.00
2022-11-14T18:20:50.159Z,99587.00
2022-11-14T18:23:17.116Z,99585.00
2022-11-14T18:25:44.087Z,99574.00
2022-11-14T18:28:17.127Z,99589.00
2022-11-14T18:30:55.420Z,99586.00
2022-11-14T18:33:29.157Z,99592.00
2022-11-14T18:36:06.132Z,99586.00
2022-11-14T18:38:39.157Z,99582.00
2022-11-14T18:41:13.126Z,99572.00
2022-11-14T18:43:47.171Z,99582.00
2022-11-14T18:46:22.062Z,99580.00
2022-11-14T18:48:59.150Z,99572.00
2022-11-14T18:51:28.842Z,99572.00
2022-11-14T18:54:03.210Z,99564.00
2022-11-14T18:56:37.144Z,99567.00
2022-11-14T18:59:04.432Z,99552.00
2022-11-14T19:01:38.221Z,99549.00
2022-11-14T19:04:14.233Z,99562.00
2022-11-14T19:06:48.247Z,99557.00
2022-11-14T19:09:15.622Z,99535.00
2022-11-14T19:11:49.209Z,99551.00
2022-11-14T19:14:16.179Z,99556.00
2022-11-14T19:16:49.207Z,99565.00
2022-11-14T19:19:16.203Z,99549.00
2022-11-14T19:21:43.282Z,99553.00
2022-11-14T19:24:17.214Z,99551.00
2022-11-14T19:26:44.361Z,99561.00
2022-11-14T19:29:12.002Z,99549.00
2022-11-14T19:31:46.180Z,99560.00
2022-11-14T19:34:20.276Z,99548.00
2022-11-14T19:36:59.919Z,99547.00
2022-11-14T19:39:35.248Z,99556.00
2022-11-14T19:42:03.111Z,99562.00
2022-11-14T19:44:30.138Z,99545.00
2022-11-14T19:47:04.259Z,99572.00
2022-11-14T19:49:41.595Z,99562.00
2022-11-14T19:52:17.931Z,99560.00
2022-11-14T19:54:52.522Z,99552.00
2022-11-14T19:57:26.587Z,99571.00
2022-11-14T19:59:54.378Z,99563.00
2022-11-14T20:02:28.494Z,99557.00
2022-11-14T20:04:55.701Z,99548.00
2022-11-14T20:07:29.326Z,99549.00
2022-11-14T20:09:56.624Z,99551.00
2022-11-14T20:12:30.599Z,99548.00
2022-11-14T20:14:57.836Z,99557.00
2022-11-14T20:17:24.968Z,99547.00
2022-11-14T20:20:00.562Z,99549.00
2022-11-14T20:22:27.740Z,99556.00
2022-11-14T20:25:01.379Z,99548.00
2022-11-14T20:27:35.314Z,99548.00
2022-11-14T20:30:09.391Z,99514.00
2022-11-14T20:32:43.479Z,99546.00
2022-11-14T20:35:11.003Z,99557.00
2022-11-14T20:37:38.342Z,99565.00
2022-11-14T20:40:13.346Z,99549.00
2022-11-14T20:42:40.565Z,99560.00
2022-11-14T20:45:20.169Z,99553.00
2022-11-14T20:47:47.029Z,99540.00
2022-11-14T20:50:20.235Z,99550.00
2022-11-14T20:52:47.908Z,99542.00
2022-11-14T20:55:15.304Z,99533.00
2022-11-14T20:57:48.178Z,99549.00
2022-11-14T21:00:15.678Z,99548.00
2022-11-14T21:02:49.306Z,99552.00
2022-11-14T21:05:16.212Z,99549.00
2022-11-14T21:07:49.188Z,99537.00
2022-11-14T21:10:16.550Z,99542.00
2022-11-14T21:12:50.192Z,99546.00
2022-11-14T21:15:17.202Z,99521.00
2022-11-14T21:17:50.176Z,99534.00
2022-11-14T21:20:17.208Z,99521.00
2022-11-14T21:22:50.191Z,99507.00
2022-11-14T21:25:23.190Z,99521.00
2022-11-14T21:27:50.021Z,99515.00
2022-11-14T21:30:23.237Z,99511.00
2022-11-14T21:32:53.143Z,99522.00
2022-11-14T21:35:26.207Z,99520.00
2022-11-14T21:37:53.042Z,99505.00
2022-11-14T21:40:26.205Z,99509.00
2022-11-14T21:42:53.107Z,99505.00
2022-11-14T21:45:26.203Z,99495.00
2022-11-14T21:47:53.046Z,99496.00
2022-11-14T21:50:19.903Z,99482.00
2022-11-14T21:52:53.210Z,99493.00
2022-11-14T21:55:26.247Z,99492.00
2022-11-14T21:58:02.223Z,99486.00
2022-11-14T22:00:35.353Z,99488.00
2022-11-14T22:03:02.245Z,99488.00
2022-11-14T22:05:29.110Z,99473.00
2022-11-14T22:08:02.214Z,99464.00
2022-11-14T22:10:29.036Z,99481.00
2022-11-14T22:13:02.216Z,99481.00
2022-11-14T22:15:35.226Z,99477.00
2022-11-14T22:18:02.172Z,99482.00
2022-11-14T22:20:35.241Z,99450.00
2022-11-14T22:23:02.122Z,99456.00
2022-11-14T22:25:35.204Z,99460.00
2022-11-14T22:28:02.138Z,99454.00
2022-11-14T22:30:35.220Z,99469.00
2022-11-14T22:33:02.100Z,99461.00
2022-11-14T22:35:35.244Z,99454.00
2022-11-14T22:38:02.114Z,99453.00
2022-11-14T22:40:35.301Z,99468.00
2022-11-14T22:43:02.153Z,99469.00
2022-11-14T22:45:35.259Z,99469.00
2022-11-14T22:48:02.139Z,99447.00
2022-11-14T22:50:35.226Z,99457.00
2022-11-14T22:53:02.073Z,99462.00
2022-11-14T22:55:35.226Z,99469.00
2022-11-14T22:58:08.236Z,99461.00
2022-11-14T23:00:35.128Z,99451.00
2022-11-14T23:03:08.332Z,99449.00
2022-11-14T23:05:36.820Z,99459.00
2022-11-14T23:08:11.267Z,99467.00
2022-11-14T23:10:38.184Z,99463.00
2022-11-14T23:13:11.259Z,99473.00
2022-11-14T23:15:38.384Z,99464.00
2022-11-14T23:18:12.272Z,99453.00
2022-11-14T23:20:39.141Z,99453.00
2022-11-14T23:23:12.237Z,99468.00
2022-11-14T23:25:39.087Z,99460.00
2022-11-14T23:28:12.260Z,99463.00
2022-11-14T23:30:39.179Z,99458.00
2022-11-14T23:33:12.280Z,99452.00
2022-11-14T23:35:39.096Z,99455.00
2022-11-14T23:38:12.260Z,99440.00
2022-11-14T23:40:39.117Z,99457.00
2022-11-14T23:43:05.980Z,99434.00
2022-11-14T23:45:39.270Z,99443.00
2022-11-14T23:48:13.071Z,99441.00
2022-11-14T23:50:46.315Z,99434.00
2022-11-14T23:53:13.206Z,99431.00
2022-11-14T23:55:46.265Z,99436.00
2022-11-14T23:58:13.154Z,99426.00
